createdAt,value
2016-09-07T00:00:44.223Z,25.27
2016-09-07T00:01:44.239Z,25.18
2016-09-07T00:02:43.928Z,25.25
2016-09-07T00:03:44.785Z,25.18
2016-09-07T00:04:43.943Z,25.23
2016-09-07T00:05:43.960Z,25.23
2016-09-07T00:06:44.320Z,25.21
2016-09-07T00:07:43.652Z,25.2
2016-09-07T00:08:43.660Z,25.24
2016-09-07T00:09:44.292Z,25.2
2016-09-07T00:10:44.637Z,25.23
2016-09-07T00:11:43.687Z,25.21
2016-09-07T00:12:43.695Z,25.15
2016-09-07T00:13:44.015Z,25.14
2016-09-07T00:14:44.821Z,25.13
2016-09-07T00:15:43.714Z,25.13
2016-09-07T00:16:44.034Z,25.15
2016-09-07T00:17:44.041Z,25.17
2016-09-07T00:18:44.047Z,25.15
2016-09-07T00:19:44.054Z,25.21
2016-09-07T00:20:44.063Z,25.18
2016-09-07T00:21:44.385Z,25.18
2016-09-07T00:22:44.390Z,25.14
2016-09-07T00:23:44.398Z,25.21
2016-09-07T00:24:44.094Z,25.18
2016-09-07T00:25:45.048Z,25.2
2016-09-07T00:26:43.795Z,25.23
2016-09-07T00:27:44.118Z,25.2
2016-09-07T00:28:44.121Z,25.14
2016-09-07T00:29:44.441Z,25.15
2016-09-07T00:30:44.136Z,25.13
2016-09-07T00:31:44.143Z,25.2
2016-09-07T00:32:44.464Z,25.18
2016-09-07T00:33:44.157Z,25.2
2016-09-07T00:34:44.476Z,25.2
2016-09-07T00:35:44.171Z,25.21
2016-09-07T00:36:44.668Z,25.15
2016-09-07T00:37:44.186Z,25.09
2016-09-07T00:38:44.190Z,25.1
2016-09-07T00:39:44.204Z,25.09
2016-09-07T00:40:44.620Z,25.2
2016-09-07T00:41:44.214Z,25.14
2016-09-07T00:42:44.219Z,25.09
2016-09-07T00:43:44.540Z,25.15
2016-09-07T00:44:44.237Z,25.15
2016-09-07T00:45:45.425Z,25.15
2016-09-07T00:46:44.561Z,25.15
2016-09-07T00:47:44.756Z,25.2
2016-09-07T00:48:44.580Z,25.1
2016-09-07T00:49:44.585Z,25.17
2016-09-07T00:50:44.596Z,25.17
2016-09-07T00:51:44.286Z,25.15
2016-09-07T00:52:43.983Z,25.14
2016-09-07T00:53:44.300Z,25.13
2016-09-07T00:54:43.996Z,25.21
2016-09-07T00:55:44.316Z,25.14
2016-09-07T00:56:45.637Z,25.18
2016-09-07T00:57:44.327Z,25.15
2016-09-07T00:58:44.850Z,25.13
2016-09-07T00:59:44.394Z,25.09
2016-09-07T01:00:45.636Z,25.09
2016-09-07T01:01:44.048Z,25.08
2016-09-07T01:02:44.364Z,25.18
2016-09-07T01:03:44.373Z,25.03
2016-09-07T01:04:44.381Z,25.17
2016-09-07T01:05:44.698Z,25.18
2016-09-07T01:06:44.720Z,25.2
2016-09-07T01:07:44.763Z,25.18
2016-09-07T01:08:44.723Z,25.14
2016-09-07T01:09:44.715Z,25.15
2016-09-07T01:10:44.424Z,25.13
2016-09-07T01:11:46.030Z,25.17
2016-09-07T01:12:44.123Z,25.17
2016-09-07T01:13:44.451Z,25.14
2016-09-07T01:14:44.450Z,25.17
2016-09-07T01:15:44.458Z,25.08
2016-09-07T01:16:44.467Z,25.13
2016-09-07T01:17:44.472Z,25.18
2016-09-07T01:18:44.797Z,25.08
2016-09-07T01:19:44.803Z,25.09
2016-09-07T01:20:44.598Z,25.06
2016-09-07T01:21:44.501Z,25.14
2016-09-07T01:22:45.489Z,25.06
2016-09-07T01:23:44.529Z,25.1
2016-09-07T01:24:44.842Z,25.1
2016-09-07T01:25:44.220Z,25.13
2016-09-07T01:26:44.850Z,25.1
2016-09-07T01:27:44.862Z,25.13
2016-09-07T01:28:44.557Z,25.1
2016-09-07T01:29:44.564Z,25.15
2016-09-07T01:30:44.260Z,25.05
2016-09-07T01:31:44.579Z,25.09
2016-09-07T01:32:44.268Z,25.09
2016-09-07T01:33:45.827Z,25.09
2016-09-07T01:34:44.281Z,25.08
2016-09-07T01:35:44.604Z,25.08
2016-09-07T01:36:44.294Z,25.09
2016-09-07T01:37:44.933Z,25.06
2016-09-07T01:38:44.309Z,25.08
2016-09-07T01:39:44.634Z,25.06
2016-09-07T01:40:44.326Z,25.05
2016-09-07T01:41:44.646Z,25.09
2016-09-07T01:42:44.653Z,25.05
2016-09-07T01:43:44.980Z,25.06
2016-09-07T01:44:45.168Z,25.13
2016-09-07T01:45:44.989Z,25.09
2016-09-07T01:46:45.002Z,25.06
2016-09-07T01:47:44.695Z,25.1
2016-09-07T01:48:44.698Z,25.13
2016-09-07T01:49:44.714Z,25.03
2016-09-07T01:50:45.026Z,25.14
2016-09-07T01:51:45.033Z,25.06
2016-09-07T01:52:45.037Z,25.14
2016-09-07T01:53:44.421Z,25.09
2016-09-07T01:54:44.430Z,25.13
2016-09-07T01:55:45.202Z,25.08
2016-09-07T01:56:44.769Z,25.08
2016-09-07T01:57:44.764Z,25.09
2016-09-07T01:58:45.085Z,25.1
2016-09-07T01:59:45.087Z,25.09
2016-09-07T02:00:44.786Z,25.05
2016-09-07T02:01:44.480Z,25.1
2016-09-07T02:02:44.802Z,25.09
2016-09-07T02:03:44.502Z,25.09
2016-09-07T02:04:45.128Z,25.14
2016-09-07T02:05:44.822Z,25.03
2016-09-07T02:06:44.830Z,25.08
2016-09-07T02:07:44.839Z,25.06
2016-09-07T02:08:46.251Z,25.08
2016-09-07T02:09:44.537Z,25.1
2016-09-07T02:10:44.861Z,25.13
2016-09-07T02:11:44.563Z,25.13
2016-09-07T02:12:44.561Z,25.1
2016-09-07T02:13:45.245Z,25.08
2016-09-07T02:14:45.202Z,25.08
2016-09-07T02:15:45.210Z,25.08
2016-09-07T02:16:45.213Z,25.09
2016-09-07T02:17:45.222Z,25.06
2016-09-07T02:18:44.653Z,25.02
2016-09-07T02:19:46.127Z,25.03
2016-09-07T02:20:44.930Z,25.05
2016-09-07T02:21:44.623Z,25.08
2016-09-07T02:22:45.262Z,25.08
2016-09-07T02:23:44.643Z,25.02
2016-09-07T02:24:44.958Z,25.06
2016-09-07T02:25:44.651Z,25.02
2016-09-07T02:26:45.286Z,25.02
2016-09-07T02:27:45.294Z,25
2016-09-07T02:28:45.300Z,25.02
2016-09-07T02:29:44.994Z,25.08
2016-09-07T02:30:45.864Z,24.99
2016-09-07T02:31:44.695Z,25.02
2016-09-07T02:32:45.016Z,24.99
2016-09-07T02:33:44.710Z,25
2016-09-07T02:34:45.031Z,25.02
2016-09-07T02:35:45.041Z,25.14
2016-09-07T02:36:45.357Z,25
2016-09-07T02:37:45.053Z,24.99
2016-09-07T02:38:45.058Z,25.09
2016-09-07T02:39:45.070Z,24.96
2016-09-07T02:40:44.760Z,24.96
2016-09-07T02:41:45.772Z,25
2016-09-07T02:42:45.087Z,24.96
2016-09-07T02:43:45.107Z,24.96
2016-09-07T02:44:45.417Z,25
2016-09-07T02:45:44.797Z,24.96
2016-09-07T02:46:45.167Z,24.98
2016-09-07T02:47:45.174Z,25.05
2016-09-07T02:48:45.129Z,24.99
2016-09-07T02:49:45.137Z,24.99
2016-09-07T02:50:44.845Z,24.98
2016-09-07T02:51:44.840Z,25.02
2016-09-07T02:52:45.604Z,24.95
2016-09-07T02:53:45.482Z,25.08
2016-09-07T02:54:46.459Z,25.02
2016-09-07T02:55:45.183Z,24.99
2016-09-07T02:56:45.189Z,25
2016-09-07T02:57:45.190Z,25
2016-09-07T02:58:45.515Z,24.96
2016-09-07T02:59:45.210Z,25.02
2016-09-07T03:00:44.901Z,25.02
2016-09-07T03:01:45.539Z,24.96
2016-09-07T03:02:45.546Z,25.02
2016-09-07T03:03:45.739Z,25.02
2016-09-07T03:04:45.242Z,24.98
2016-09-07T03:05:45.254Z,25
2016-09-07T03:06:44.949Z,24.93
2016-09-07T03:07:45.580Z,24.99
2016-09-07T03:08:45.590Z,25
2016-09-07T03:09:44.970Z,24.99
2016-09-07T03:10:45.603Z,24.99
2016-09-07T03:11:45.605Z,24.99
2016-09-07T03:12:45.307Z,24.93
2016-09-07T03:13:45.310Z,24.96
2016-09-07T03:14:45.316Z,24.98
2016-09-07T03:15:45.326Z,24.9
2016-09-07T03:16:46.524Z,24.99
2016-09-07T03:17:45.340Z,25.08
2016-09-07T03:18:45.745Z,24.98
2016-09-07T03:19:45.722Z,24.9
2016-09-07T03:20:45.674Z,24.99
2016-09-07T03:21:45.368Z,24.98
2016-09-07T03:22:45.064Z,25.05
2016-09-07T03:23:45.385Z,24.99
2016-09-07T03:24:45.080Z,24.95
2016-09-07T03:25:45.397Z,25
2016-09-07T03:26:45.412Z,24.99
2016-09-07T03:27:46.624Z,24.98
2016-09-07T03:28:45.418Z,24.96
2016-09-07T03:29:45.113Z,24.91
2016-09-07T03:30:45.445Z,25.02
2016-09-07T03:31:45.755Z,24.98
2016-09-07T03:32:45.448Z,25.02
2016-09-07T03:33:45.457Z,25
2016-09-07T03:34:45.462Z,24.96
2016-09-07T03:35:45.783Z,24.93
2016-09-07T03:36:45.798Z,24.88
2016-09-07T03:37:45.484Z,24.9
2016-09-07T03:38:46.251Z,24.96
2016-09-07T03:39:45.812Z,24.9
2016-09-07T03:40:45.815Z,24.96
2016-09-07T03:41:45.512Z,24.95
2016-09-07T03:42:45.832Z,24.98
2016-09-07T03:43:45.523Z,24.95
2016-09-07T03:44:45.533Z,24.88
2016-09-07T03:45:45.852Z,24.98
2016-09-07T03:46:45.547Z,24.95
2016-09-07T03:47:45.863Z,24.9
2016-09-07T03:48:45.298Z,24.85
2016-09-07T03:49:46.130Z,24.84
2016-09-07T03:50:45.577Z,24.91
2016-09-07T03:51:47.509Z,24.96
2016-09-07T03:52:45.597Z,24.9
2016-09-07T03:53:45.595Z,24.95
2016-09-07T03:54:45.604Z,24.83
2016-09-07T03:55:45.612Z,24.99
2016-09-07T03:56:45.931Z,24.9
2016-09-07T03:57:45.635Z,24.96
2016-09-07T03:58:45.945Z,24.9
2016-09-07T03:59:45.953Z,24.93
2016-09-07T04:00:45.958Z,24.87
2016-09-07T04:01:45.658Z,24.98
2016-09-07T04:02:46.635Z,24.91
2016-09-07T04:03:45.671Z,24.8
2016-09-07T04:04:46.025Z,24.95
2016-09-07T04:05:45.684Z,24.88
2016-09-07T04:06:45.689Z,24.98
2016-09-07T04:07:46.011Z,24.91
2016-09-07T04:08:45.389Z,24.84
2016-09-07T04:09:46.025Z,24.96
2016-09-07T04:10:46.031Z,24.95
2016-09-07T04:11:45.734Z,24.85
2016-09-07T04:12:46.049Z,24.91
2016-09-07T04:13:47.101Z,24.88
2016-09-07T04:14:45.749Z,24.87
2016-09-07T04:15:45.543Z,24.87
2016-09-07T04:16:46.077Z,24.84
2016-09-07T04:17:45.767Z,24.8
2016-09-07T04:18:45.464Z,24.84
2016-09-07T04:19:46.148Z,24.88
2016-09-07T04:20:45.584Z,24.88
2016-09-07T04:21:45.799Z,24.83
2016-09-07T04:22:45.495Z,24.85
2016-09-07T04:23:45.503Z,24.81
2016-09-07T04:24:46.722Z,24.84
2016-09-07T04:25:46.150Z,24.88
2016-09-07T04:26:45.885Z,24.9
2016-09-07T04:27:45.843Z,24.84
2016-09-07T04:28:46.167Z,24.81
2016-09-07T04:29:45.864Z,24.84
2016-09-07T04:30:45.861Z,24.83
2016-09-07T04:31:46.189Z,24.84
2016-09-07T04:32:45.564Z,24.8
2016-09-07T04:33:46.199Z,24.78
2016-09-07T04:34:45.587Z,24.69
2016-09-07T04:35:46.699Z,24.71
2016-09-07T04:36:45.592Z,24.71
2016-09-07T04:37:45.917Z,24.81
2016-09-07T04:38:46.231Z,24.81
2016-09-07T04:39:45.613Z,24.83
2016-09-07T04:40:45.935Z,24.76
2016-09-07T04:41:45.626Z,24.77
2016-09-07T04:42:46.261Z,24.78
2016-09-07T04:43:46.275Z,24.67
2016-09-07T04:44:45.658Z,24.68
2016-09-07T04:45:45.971Z,24.76
2016-09-07T04:46:46.227Z,24.8
2016-09-07T04:47:45.984Z,24.83
2016-09-07T04:48:45.991Z,24.8
2016-09-07T04:49:46.004Z,24.83
2016-09-07T04:50:46.704Z,24.81
2016-09-07T04:51:46.012Z,24.78
2016-09-07T04:52:46.017Z,24.76
2016-09-07T04:53:46.336Z,24.83
2016-09-07T04:54:46.344Z,24.83
2016-09-07T04:55:46.354Z,24.77
2016-09-07T04:56:46.047Z,24.68
2016-09-07T04:57:46.367Z,24.69
2016-09-07T04:58:46.376Z,24.8
2016-09-07T04:59:47.573Z,24.84
2016-09-07T05:00:46.078Z,24.69
2016-09-07T05:01:46.084Z,24.87
2016-09-07T05:02:45.779Z,24.69
2016-09-07T05:03:46.096Z,24.71
2016-09-07T05:04:46.417Z,24.85
2016-09-07T05:05:46.213Z,24.84
2016-09-07T05:06:46.434Z,24.84
2016-09-07T05:07:46.439Z,24.69
2016-09-07T05:08:46.134Z,24.83
2016-09-07T05:09:46.139Z,24.84
2016-09-07T05:10:47.095Z,24.81
2016-09-07T05:11:46.469Z,24.8
2016-09-07T05:12:46.311Z,24.69
2016-09-07T05:13:46.170Z,24.69
2016-09-07T05:14:45.861Z,24.87
2016-09-07T05:15:46.495Z,24.77
2016-09-07T05:16:46.502Z,24.8
2016-09-07T05:17:46.512Z,24.78
2016-09-07T05:18:46.205Z,24.8
2016-09-07T05:19:46.218Z,24.78
2016-09-07T05:20:46.531Z,24.69
2016-09-07T05:21:47.096Z,24.81
2016-09-07T05:22:46.282Z,24.77
2016-09-07T05:23:46.243Z,24.81
2016-09-07T05:24:46.251Z,24.77
2016-09-07T05:25:46.304Z,24.81
2016-09-07T05:26:46.262Z,24.71
2016-09-07T05:27:46.270Z,24.81
2016-09-07T05:28:46.276Z,24.71
2016-09-07T05:29:46.286Z,24.68
2016-09-07T05:30:45.979Z,24.71
2016-09-07T05:31:45.986Z,24.83
2016-09-07T05:32:46.595Z,24.71
2016-09-07T05:33:46.625Z,24.69
2016-09-07T05:34:46.005Z,24.78
2016-09-07T05:35:46.340Z,24.77
2016-09-07T05:36:46.934Z,24.73
2016-09-07T05:37:46.390Z,24.8
2016-09-07T05:38:46.667Z,24.69
2016-09-07T05:39:46.356Z,24.81
2016-09-07T05:40:46.047Z,24.73
2016-09-07T05:41:46.683Z,24.8
2016-09-07T05:42:46.374Z,24.77
2016-09-07T05:43:46.384Z,24.69
2016-09-07T05:44:46.081Z,24.73
2016-09-07T05:45:47.914Z,24.76
2016-09-07T05:46:46.406Z,24.77
2016-09-07T05:47:46.671Z,24.8
2016-09-07T05:48:46.732Z,24.73
2016-09-07T05:49:46.427Z,24.76
2016-09-07T05:50:46.844Z,24.71
2016-09-07T05:51:46.436Z,24.8
2016-09-07T05:52:46.185Z,24.78
2016-09-07T05:53:46.766Z,24.81
2016-09-07T05:54:46.772Z,24.83
2016-09-07T05:55:46.783Z,24.83
2016-09-07T05:56:46.165Z,24.81
2016-09-07T05:57:46.175Z,24.84
2016-09-07T05:58:47.085Z,24.88
2016-09-07T05:59:46.498Z,24.84
2016-09-07T06:00:46.817Z,24.87
2016-09-07T06:01:46.513Z,24.9
2016-09-07T06:02:46.257Z,24.98
2016-09-07T06:03:46.839Z,24.85
2016-09-07T06:04:46.854Z,24.84
2016-09-07T06:05:46.854Z,24.85
2016-09-07T06:06:46.864Z,24.91
2016-09-07T06:07:48.006Z,24.83
2016-09-07T06:08:46.302Z,24.9
2016-09-07T06:09:46.409Z,24.95
2016-09-07T06:10:46.582Z,24.91
2016-09-07T06:11:46.897Z,24.9
2016-09-07T06:12:46.906Z,24.91
2016-09-07T06:13:46.288Z,24.99
2016-09-07T06:14:46.933Z,24.93
2016-09-07T06:15:46.667Z,24.99
2016-09-07T06:16:46.622Z,25
2016-09-07T06:17:46.317Z,25
2016-09-07T06:18:47.638Z,25.03
2016-09-07T06:19:46.960Z,25.02
2016-09-07T06:20:46.739Z,25.03
2016-09-07T06:21:46.661Z,25.09
2016-09-07T06:22:48.080Z,25.06
2016-09-07T06:23:46.985Z,25.13
2016-09-07T06:24:47.045Z,25.09
2016-09-07T06:25:46.378Z,25.09
2016-09-07T06:26:46.697Z,25.13
2016-09-07T06:27:46.393Z,25.08
2016-09-07T06:28:47.022Z,25.2
2016-09-07T06:29:47.106Z,25.18
2016-09-07T06:30:46.739Z,25.13
2016-09-07T06:31:46.734Z,25.21
2016-09-07T06:32:46.741Z,25.24
2016-09-07T06:33:47.864Z,25.2
2016-09-07T06:34:46.756Z,25.23
2016-09-07T06:35:47.077Z,25.24
2016-09-07T06:36:46.771Z,25.33
2016-09-07T06:37:47.093Z,25.33
2016-09-07T06:38:47.101Z,25.39
2016-09-07T06:39:46.797Z,25.51
2016-09-07T06:40:46.806Z,25.51
2016-09-07T06:41:46.811Z,25.52
2016-09-07T06:42:46.867Z,25.65
2016-09-07T06:43:46.822Z,25.67
2016-09-07T06:44:48.345Z,25.75
2016-09-07T06:45:46.849Z,25.77
2016-09-07T06:46:46.853Z,25.77
2016-09-07T06:47:47.171Z,25.67
2016-09-07T06:48:47.180Z,25.62
2016-09-07T06:49:46.879Z,25.58
2016-09-07T06:50:47.248Z,25.47
2016-09-07T06:51:46.894Z,25.46
2016-09-07T06:52:47.266Z,25.51
2016-09-07T06:53:46.913Z,25.46
2016-09-07T06:54:47.233Z,25.45
2016-09-07T06:55:48.078Z,25.47
2016-09-07T06:57:47.255Z,25.43
2016-09-07T06:58:46.650Z,25.47
2016-09-07T06:59:46.956Z,25.51
2016-09-07T07:00:47.017Z,25.46
2016-09-07T07:01:47.288Z,25.46
2016-09-07T07:02:47.038Z,25.39
2016-09-07T07:03:47.304Z,25.43
2016-09-07T07:04:48.294Z,25.45
2016-09-07T07:05:47.322Z,25.42
2016-09-07T07:06:47.668Z,25.47
2016-09-07T07:07:47.024Z,25.36
2016-09-07T07:08:47.031Z,25.43
2016-09-07T07:09:47.046Z,25.36
2016-09-07T07:10:47.047Z,25.4
2016-09-07T07:11:47.368Z,25.39
2016-09-07T07:12:47.382Z,25.39
2016-09-07T07:13:46.757Z,25.35
2016-09-07T07:14:47.135Z,25.38
2016-09-07T07:15:47.144Z,25.42
2016-09-07T07:16:47.096Z,25.36
2016-09-07T07:17:47.491Z,25.33
2016-09-07T07:18:47.525Z,25.39
2016-09-07T07:19:47.113Z,25.38
2016-09-07T07:20:47.127Z,25.4
2016-09-07T07:21:46.825Z,25.4
2016-09-07T07:22:47.452Z,25.38
2016-09-07T07:23:47.462Z,25.38
2016-09-07T07:24:47.468Z,25.28
2016-09-07T07:25:46.853Z,25.33
2016-09-07T07:26:47.483Z,25.4
2016-09-07T07:27:47.539Z,25.33
2016-09-07T07:28:47.587Z,25.33
2016-09-07T07:29:47.196Z,25.4
2016-09-07T07:30:48.850Z,25.33
2016-09-07T07:31:46.898Z,25.39
2016-09-07T07:32:47.268Z,25.3
2016-09-07T07:33:47.541Z,25.36
2016-09-07T07:34:47.234Z,25.33
2016-09-07T07:35:47.244Z,25.33
2016-09-07T07:36:47.247Z,25.3
2016-09-07T07:37:47.621Z,25.38
2016-09-07T07:38:47.264Z,25.39
2016-09-07T07:39:47.584Z,25.39
2016-09-07T07:40:47.282Z,25.33
2016-09-07T07:41:48.722Z,25.27
2016-09-07T07:42:46.984Z,25.36
2016-09-07T07:43:47.610Z,25.38
2016-09-07T07:44:47.309Z,25.4
2016-09-07T07:45:47.629Z,25.36
2016-09-07T07:46:47.388Z,25.33
2016-09-07T07:47:47.641Z,25.33
2016-09-07T07:48:47.343Z,25.33
2016-09-07T07:49:47.037Z,25.23
2016-09-07T07:50:47.662Z,25.38
2016-09-07T07:51:47.674Z,25.38
2016-09-07T07:52:48.717Z,25.25
2016-09-07T07:53:47.426Z,25.27
2016-09-07T07:54:47.383Z,25.33
2016-09-07T07:55:47.391Z,25.21
2016-09-07T07:56:47.445Z,25.23
2016-09-07T07:57:47.451Z,25.23
2016-09-07T07:58:47.412Z,25.23
2016-09-07T07:59:47.419Z,25.33
2016-09-07T08:00:47.427Z,25.38
2016-09-07T08:01:47.433Z,25.36
2016-09-07T08:02:47.442Z,25.38
2016-09-07T08:03:48.411Z,25.36
2016-09-07T08:04:47.822Z,25.33
2016-09-07T08:05:47.351Z,25.38
2016-09-07T08:06:47.785Z,25.4
2016-09-07T08:07:47.483Z,25.36
2016-09-07T08:08:47.956Z,25.36
2016-09-07T08:09:47.232Z,25.38
2016-09-07T08:10:47.824Z,25.39
2016-09-07T08:11:48.372Z,25.33
2016-09-07T08:12:47.570Z,25.33
2016-09-07T08:13:47.885Z,25.38
2016-09-07T08:14:48.396Z,25.36
2016-09-07T08:15:47.852Z,25.36
2016-09-07T08:16:47.549Z,25.33
2016-09-07T08:17:47.556Z,25.39
2016-09-07T08:18:47.876Z,25.36
2016-09-07T08:19:47.572Z,25.39
2016-09-07T08:20:47.888Z,25.33
2016-09-07T08:21:47.586Z,25.39
2016-09-07T08:22:47.592Z,25.38
2016-09-07T08:23:47.605Z,25.4
2016-09-07T08:24:47.610Z,25.43
2016-09-07T08:25:48.065Z,25.43
2016-09-07T08:26:47.623Z,25.6
2016-09-07T08:27:47.628Z,25.83
2016-09-07T08:28:47.950Z,25.97
2016-09-07T08:29:47.957Z,26.17
2016-09-07T08:30:48.085Z,26.21
2016-09-07T08:31:47.975Z,26.37
2016-09-07T08:32:47.990Z,26.47
2016-09-07T08:33:47.992Z,26.54
2016-09-07T08:34:47.752Z,26.57
2016-09-07T08:35:47.390Z,26.54
2016-09-07T08:36:48.008Z,26.54
2016-09-07T08:37:48.030Z,26.66
2016-09-07T08:38:49.354Z,26.62
2016-09-07T08:39:48.052Z,26.66
2016-09-07T08:40:47.753Z,26.69
2016-09-07T08:41:47.753Z,26.67
2016-09-07T08:42:47.764Z,26.65
2016-09-07T08:43:47.771Z,26.65
2016-09-07T08:44:47.467Z,26.72
2016-09-07T08:45:47.793Z,26.66
2016-09-07T08:46:48.108Z,26.66
2016-09-07T08:47:47.858Z,26.72
2016-09-07T08:48:48.178Z,26.72
2016-09-07T08:49:48.979Z,26.77
2016-09-07T08:50:47.883Z,26.77
2016-09-07T08:51:47.929Z,26.7
2016-09-07T08:52:48.161Z,26.66
2016-09-07T08:53:47.856Z,26.67
2016-09-07T08:54:48.178Z,26.69
2016-09-07T08:55:48.728Z,26.54
2016-09-07T08:56:47.883Z,26.48
2016-09-07T08:57:47.888Z,26.48
2016-09-07T08:58:47.583Z,26.44
2016-09-07T08:59:47.907Z,26.3
2016-09-07T09:00:49.111Z,26.1
2016-09-07T09:01:47.611Z,26.09
2016-09-07T09:02:48.244Z,26.06
2016-09-07T09:03:48.252Z,25.99
2016-09-07T09:04:47.947Z,26.05
2016-09-07T09:05:48.008Z,26.02
2016-09-07T09:06:48.376Z,25.95
2016-09-07T09:07:48.338Z,25.98
2016-09-07T09:08:48.080Z,26.02
2016-09-07T09:09:48.094Z,25.99
2016-09-07T09:10:47.685Z,26.1
2016-09-07T09:11:48.393Z,26.06
2016-09-07T09:12:48.327Z,26.1
2016-09-07T09:13:47.812Z,25.99
2016-09-07T09:14:48.443Z,26.1
2016-09-07T09:15:47.734Z,26.06
2016-09-07T09:16:48.048Z,26.17
2016-09-07T09:17:48.053Z,26.13
2016-09-07T09:18:48.063Z,26.1
2016-09-07T09:19:48.073Z,26.17
2016-09-07T09:20:48.076Z,26.1
2016-09-07T09:21:48.402Z,26.2
2016-09-07T09:22:48.543Z,26.18
2016-09-07T09:23:48.416Z,26.09
2016-09-07T09:24:49.945Z,26.2
2016-09-07T09:25:48.435Z,26.13
2016-09-07T09:26:48.130Z,26.15
2016-09-07T09:27:47.826Z,26.17
2016-09-07T09:28:48.463Z,26.15
2016-09-07T09:29:47.842Z,26.17
2016-09-07T09:30:48.161Z,26.21
2016-09-07T09:31:47.868Z,26.2
2016-09-07T09:32:48.538Z,26.26
2016-09-07T09:33:48.286Z,26.2
2016-09-07T09:34:48.192Z,26.15
2016-09-07T09:35:49.400Z,26.17
2016-09-07T09:36:48.209Z,26.12
2016-09-07T09:37:48.771Z,26.1
2016-09-07T09:38:48.537Z,26.17
2016-09-07T09:39:48.284Z,26.15
2016-09-07T09:40:48.253Z,26.13
2016-09-07T09:41:47.936Z,26.13
2016-09-07T09:42:48.573Z,26.12
2016-09-07T09:43:48.269Z,26.18
2016-09-07T09:44:47.969Z,26.17
2016-09-07T09:45:48.599Z,26.17
2016-09-07T09:46:49.939Z,26.1
2016-09-07T09:47:48.298Z,26.18
2016-09-07T09:48:48.722Z,26.12
2016-09-07T09:49:48.626Z,26.18
2016-09-07T09:50:48.638Z,26.2
2016-09-07T09:51:48.331Z,26.26
2016-09-07T09:52:48.387Z,26.17
2016-09-07T09:53:48.348Z,26.23
2016-09-07T09:54:48.354Z,26.17
2016-09-07T09:55:48.679Z,26.2
2016-09-07T09:56:48.683Z,26.32
2016-09-07T09:57:48.074Z,26.32
2016-09-07T09:58:48.080Z,26.3
2016-09-07T09:59:48.646Z,26.32
2016-09-07T10:00:48.091Z,26.28
2016-09-07T10:01:48.147Z,26.3
2016-09-07T10:02:48.421Z,26.33
2016-09-07T10:03:48.738Z,26.32
2016-09-07T10:04:48.120Z,26.4
2016-09-07T10:05:48.131Z,26.36
2016-09-07T10:06:48.767Z,26.3
2016-09-07T10:07:48.148Z,26.35
2016-09-07T10:08:49.580Z,26.33
2016-09-07T10:09:48.476Z,26.35
2016-09-07T10:10:48.487Z,26.29
2016-09-07T10:11:48.590Z,26.33
2016-09-07T10:12:48.183Z,26.32
2016-09-07T10:13:48.831Z,26.36
2016-09-07T10:14:48.515Z,26.28
2016-09-07T10:15:48.210Z,26.29
2016-09-07T10:16:48.843Z,26.3
2016-09-07T10:17:48.539Z,26.3
2016-09-07T10:18:48.857Z,26.33
2016-09-07T10:19:49.457Z,26.37
2016-09-07T10:20:48.565Z,26.3
2016-09-07T10:21:48.623Z,26.32
2016-09-07T10:22:48.580Z,26.32
2016-09-07T10:23:49.902Z,26.33
2016-09-07T10:24:48.598Z,26.39
2016-09-07T10:25:48.604Z,26.39
2016-09-07T10:26:48.299Z,26.37
2016-09-07T10:27:48.618Z,26.4
2016-09-07T10:28:48.628Z,26.4
2016-09-07T10:29:48.323Z,26.37
2016-09-07T10:30:48.781Z,26.35
2016-09-07T10:31:48.654Z,26.3
2016-09-07T10:32:48.656Z,26.39
2016-09-07T10:33:48.663Z,26.26
2016-09-07T10:34:49.634Z,26.28
2016-09-07T10:35:48.688Z,26.2
2016-09-07T10:36:48.685Z,26.21
2016-09-07T10:37:48.746Z,26.28
2016-09-07T10:38:49.015Z,26.29
2016-09-07T10:39:49.022Z,26.23
2016-09-07T10:40:49.048Z,26.26
2016-09-07T10:41:49.045Z,26.23
2016-09-07T10:42:48.744Z,26.32
2016-09-07T10:43:48.436Z,26.13
2016-09-07T10:44:49.122Z,26.23
2016-09-07T10:45:49.470Z,26.2
2016-09-07T10:46:48.818Z,26.18
2016-09-07T10:47:48.827Z,26.21
2016-09-07T10:48:49.097Z,26.21
2016-09-07T10:49:48.480Z,26.23
2016-09-07T10:50:48.490Z,26.26
2016-09-07T10:51:49.128Z,26.18
2016-09-07T10:52:49.132Z,26.23
2016-09-07T10:53:48.515Z,26.21
2016-09-07T10:54:50.474Z,26.29
2016-09-07T10:55:48.844Z,26.28
2016-09-07T10:56:48.988Z,26.3
2016-09-07T10:57:49.956Z,26.26
2016-09-07T10:58:48.963Z,26.3
2016-09-07T10:59:48.870Z,26.26
2016-09-07T11:00:49.283Z,26.25
2016-09-07T11:01:49.204Z,26.33
2016-09-07T11:02:48.899Z,26.12
2016-09-07T11:03:49.218Z,26.2
2016-09-07T11:04:48.921Z,26.18
2016-09-07T11:05:48.607Z,26.15
2016-09-07T11:06:48.927Z,26.29
2016-09-07T11:07:49.648Z,26.21
2016-09-07T11:08:48.941Z,26.35
2016-09-07T11:09:49.001Z,26.33
2016-09-07T11:10:48.958Z,26.3
2016-09-07T11:11:49.284Z,26.33
2016-09-07T11:12:48.666Z,26.39
2016-09-07T11:13:48.671Z,26.32
2016-09-07T11:14:49.043Z,26.26
2016-09-07T11:15:48.687Z,26.36
2016-09-07T11:16:50.444Z,26.29
2016-09-07T11:17:49.331Z,26.32
2016-09-07T11:18:49.377Z,26.32
2016-09-07T11:19:49.026Z,26.29
2016-09-07T11:20:48.729Z,26.32
2016-09-07T11:21:49.537Z,26.28
2016-09-07T11:22:49.471Z,26.26
2016-09-07T11:23:49.062Z,26.28
2016-09-07T11:24:49.121Z,26.35
2016-09-07T11:25:49.392Z,26.26
2016-09-07T11:26:48.774Z,26.35
2016-09-07T11:27:49.421Z,26.35
2016-09-07T11:28:48.790Z,26.45
2016-09-07T11:29:49.651Z,26.4
2016-09-07T11:30:49.117Z,26.39
2016-09-07T11:31:51.032Z,26.37
2016-09-07T11:32:49.446Z,26.35
2016-09-07T11:33:48.827Z,26.35
2016-09-07T11:34:49.149Z,26.3
2016-09-07T11:35:49.467Z,26.35
2016-09-07T11:36:48.920Z,26.29
2016-09-07T11:37:49.020Z,26.25
2016-09-07T11:38:49.230Z,26.29
2016-09-07T11:39:49.184Z,26.25
2016-09-07T11:40:49.304Z,26.29
2016-09-07T11:41:49.200Z,26.32
2016-09-07T11:42:49.210Z,26.3
2016-09-07T11:43:49.583Z,26.29
2016-09-07T11:44:49.539Z,26.32
2016-09-07T11:45:49.239Z,26.23
2016-09-07T11:46:48.926Z,26.26
2016-09-07T11:47:49.248Z,26.23
2016-09-07T11:48:49.306Z,26.26
2016-09-07T11:49:49.312Z,26.21
2016-09-07T11:50:49.589Z,26.2
2016-09-07T11:51:49.699Z,26.26
2016-09-07T11:52:48.977Z,26.32
2016-09-07T11:53:49.293Z,26.25
2016-09-07T11:54:49.617Z,26.29
2016-09-07T11:55:49.363Z,26.29
2016-09-07T11:56:49.633Z,26.26
2016-09-07T11:57:49.328Z,26.26
2016-09-07T11:58:49.026Z,26.26
2016-09-07T11:59:49.661Z,26.23
2016-09-07T12:00:49.036Z,26.2
2016-09-07T12:01:49.051Z,26.21
2016-09-07T12:02:49.684Z,26.25
2016-09-07T12:03:49.702Z,26.15
2016-09-07T12:04:50.649Z,26.25
2016-09-07T12:05:49.082Z,26.29
2016-09-07T12:06:49.504Z,26.28
2016-09-07T12:07:49.720Z,26.26
2016-09-07T12:08:49.470Z,26.28
2016-09-07T12:09:49.113Z,26.3
2016-09-07T12:10:49.174Z,26.32
2016-09-07T12:11:49.444Z,26.32
2016-09-07T12:12:49.450Z,26.35
2016-09-07T12:13:49.509Z,26.33
2016-09-07T12:14:49.781Z,26.36
2016-09-07T12:15:50.777Z,26.36
2016-09-07T12:16:49.487Z,26.36
2016-09-07T12:17:49.591Z,26.33
2016-09-07T12:18:49.498Z,26.32
2016-09-07T12:19:49.821Z,26.32
2016-09-07T12:20:49.516Z,26.32
2016-09-07T12:21:49.838Z,26.35
2016-09-07T12:22:49.950Z,26.3
2016-09-07T12:23:49.543Z,26.36
2016-09-07T12:24:49.549Z,26.37
2016-09-07T12:25:49.556Z,26.3
2016-09-07T12:26:50.313Z,26.37
2016-09-07T12:27:49.570Z,26.36
2016-09-07T12:28:49.582Z,26.33
2016-09-07T12:29:49.585Z,26.37
2016-09-07T12:30:49.596Z,26.35
2016-09-07T12:31:49.604Z,26.43
2016-09-07T12:32:49.665Z,26.36
2016-09-07T12:33:49.937Z,26.35
2016-09-07T12:34:49.940Z,26.37
2016-09-07T12:35:49.637Z,26.39
2016-09-07T12:36:49.338Z,26.37
2016-09-07T12:37:50.740Z,26.36
2016-09-07T12:38:49.711Z,26.37
2016-09-07T12:39:49.671Z,26.45
2016-09-07T12:40:49.359Z,26.35
2016-09-07T12:41:49.424Z,26.37
2016-09-07T12:42:50.003Z,26.37
2016-09-07T12:43:49.700Z,26.39
2016-09-07T12:44:49.709Z,26.39
2016-09-07T12:45:50.032Z,26.39
2016-09-07T12:46:50.086Z,26.39
2016-09-07T12:47:49.783Z,26.35
2016-09-07T12:48:50.591Z,26.33
2016-09-07T12:49:50.070Z,26.36
2016-09-07T12:50:49.753Z,26.39
2016-09-07T12:51:49.766Z,26.33
2016-09-07T12:52:50.722Z,26.37
2016-09-07T12:53:50.093Z,26.37
2016-09-07T12:54:49.531Z,26.37
2016-09-07T12:55:50.166Z,26.47
2016-09-07T12:56:49.801Z,26.4
2016-09-07T12:57:49.813Z,26.44
2016-09-07T12:58:49.568Z,26.43